sensor_id;sensor_type;location;lat;lon;timestamp;pressure;altitude;pressure_sealevel;temperature;humidity
7433;BME280;32233;49.500;7.764;2023-05-23T00:01:08;98400.09;;;14.77;100.00
7433;BME280;32233;49.500;7.764;2023-05-23T00:03:35;98397.31;;;14.72;100.00
7433;BME280;32233;49.500;7.764;2023-05-23T00:06:05;98400.66;;;14.67;100.00
7433;BME280;32233;49.500;7.764;2023-05-23T00:08:32;98398.56;;;14.69;100.00
7433;BME280;32233;49.500;7.764;2023-05-23T00:10:59;98400.19;;;14.58;100.00
7433;BME280;32233;49.500;7.764;2023-05-23T00:13:25;98396.13;;;14.56;100.00
7433;BME280;32233;49.500;7.764;2023-05-23T00:15:52;98391.75;;;14.50;100.00
7433;BME280;32233;49.500;7.764;2023-05-23T00:18:18;98402.94;;;14.52;100.00
7433;BME280;32233;49.500;7.764;2023-05-23T00:20:45;98396.31;;;14.43;100.00
7433;BME280;32233;49.500;7.764;2023-05-23T00:23:12;98397.91;;;14.44;100.00
7433;BME280;32233;49.500;7.764;2023-05-23T00:25:45;98394.22;;;14.45;100.00
7433;BME280;32233;49.500;7.764;2023-05-23T00:28:18;98390.94;;;14.49;100.00
7433;BME280;32233;49.500;7.764;2023-05-23T00:30:45;98396.88;;;14.45;100.00
7433;BME280;32233;49.500;7.764;2023-05-23T00:33:11;98394.47;;;14.43;100.00
7433;BME280;32233;49.500;7.764;2023-05-23T00:35:40;98392.75;;;14.49;100.00
7433;BME280;32233;49.500;7.764;2023-05-23T00:38:08;98392.84;;;14.42;100.00
7433;BME280;32233;49.500;7.764;2023-05-23T00:40:36;98392.00;;;14.30;100.00
7433;BME280;32233;49.500;7.764;2023-05-23T00:43:03;98397.03;;;14.20;100.00
7433;BME280;32233;49.500;7.764;2023-05-23T00:45:29;98396.91;;;14.15;100.00
7433;BME280;32233;49.500;7.764;2023-05-23T00:47:56;98401.34;;;14.02;100.00
7433;BME280;32233;49.500;7.764;2023-05-23T00:50:26;98392.53;;;13.90;100.00
7433;BME280;32233;49.500;7.764;2023-05-23T00:52:56;98405.56;;;14.10;100.00
7433;BME280;32233;49.500;7.764;2023-05-23T00:55:24;98403.84;;;14.16;100.00
7433;BME280;32233;49.500;7.764;2023-05-23T00:57:53;98407.84;;;14.06;100.00
7433;BME280;32233;49.500;7.764;2023-05-23T01:00:23;98402.81;;;14.17;100.00
7433;BME280;32233;49.500;7.764;2023-05-23T01:02:51;98404.19;;;14.19;100.00
7433;BME280;32233;49.500;7.764;2023-05-23T01:05:19;98406.28;;;14.17;100.00
7433;BME280;32233;49.500;7.764;2023-05-23T01:07:49;98410.97;;;14.33;100.00
7433;BME280;32233;49.500;7.764;2023-05-23T01:10:20;98408.19;;;14.40;100.00
7433;BME280;32233;49.500;7.764;2023-05-23T01:15:29;98409.88;;;14.53;100.00
7433;BME280;32233;49.500;7.764;2023-05-23T01:18:01;98406.72;;;14.44;100.00
7433;BME280;32233;49.500;7.764;2023-05-23T01:20:40;98417.59;;;14.43;100.00
7433;BME280;32233;49.500;7.764;2023-05-23T01:29:10;98416.03;;;14.53;100.00
7433;BME280;32233;49.500;7.764;2023-05-23T01:31:42;98422.16;;;14.54;100.00
7433;BME280;32233;49.500;7.764;2023-05-23T01:34:12;98423.34;;;14.81;100.00
7433;BME280;32233;49.500;7.764;2023-05-23T01:36:41;98424.31;;;14.87;100.00
7433;BME280;32233;49.500;7.764;2023-05-23T01:39:08;98417.97;;;15.00;100.00
7433;BME280;32233;49.500;7.764;2023-05-23T01:41:36;98422.13;;;14.96;100.00
7433;BME280;32233;49.500;7.764;2023-05-23T01:44:04;98428.97;;;15.03;100.00
7433;BME280;32233;49.500;7.764;2023-05-23T01:46:32;98426.63;;;14.95;100.00
7433;BME280;32233;49.500;7.764;2023-05-23T01:49:00;98421.44;;;15.00;100.00
7433;BME280;32233;49.500;7.764;2023-05-23T01:51:28;98425.69;;;15.01;100.00
7433;BME280;32233;49.500;7.764;2023-05-23T01:53:56;98427.44;;;14.96;100.00
7433;BME280;32233;49.500;7.764;2023-05-23T01:56:23;98423.84;;;15.02;100.00
7433;BME280;32233;49.500;7.764;2023-05-23T01:58:50;98425.00;;;15.06;100.00
7433;BME280;32233;49.500;7.764;2023-05-23T02:01:17;98431.69;;;14.85;100.00
7433;BME280;32233;49.500;7.764;2023-05-23T02:03:44;98430.09;;;14.96;100.00
7433;BME280;32233;49.500;7.764;2023-05-23T02:06:10;98429.53;;;14.82;100.00
7433;BME280;32233;49.500;7.764;2023-05-23T02:08:37;98438.84;;;14.73;100.00
7433;BME280;32233;49.500;7.764;2023-05-23T02:11:04;98440.91;;;14.59;100.00
7433;BME280;32233;49.500;7.764;2023-05-23T02:13:30;98443.09;;;14.32;100.00
7433;BME280;32233;49.500;7.764;2023-05-23T02:15:57;98448.44;;;14.13;100.00
7433;BME280;32233;49.500;7.764;2023-05-23T02:18:23;98451.47;;;13.99;100.00
7433;BME280;32233;49.500;7.764;2023-05-23T02:20:51;98458.28;;;14.13;100.00
7433;BME280;32233;49.500;7.764;2023-05-23T02:23:18;98451.66;;;14.34;100.00
7433;BME280;32233;49.500;7.764;2023-05-23T02:25:44;98451.38;;;14.24;100.00
7433;BME280;32233;49.500;7.764;2023-05-23T02:28:11;98458.22;;;14.01;100.00
7433;BME280;32233;49.500;7.764;2023-05-23T02:30:38;98450.06;;;14.15;100.00
7433;BME280;32233;49.500;7.764;2023-05-23T02:33:05;98463.44;;;14.08;100.00
7433;BME280;32233;49.500;7.764;2023-05-23T02:35:32;98459.00;;;13.83;100.00
7433;BME280;32233;49.500;7.764;2023-05-23T02:37:59;98460.84;;;13.83;100.00
7433;BME280;32233;49.500;7.764;2023-05-23T02:40:26;98467.06;;;13.77;100.00
7433;BME280;32233;49.500;7.764;2023-05-23T02:42:53;98465.28;;;13.71;100.00
7433;BME280;32233;49.500;7.764;2023-05-23T02:45:22;98469.28;;;13.61;100.00
7433;BME280;32233;49.500;7.764;2023-05-23T02:47:49;98471.78;;;13.56;100.00
7433;BME280;32233;49.500;7.764;2023-05-23T02:50:16;98472.88;;;13.49;100.00
7433;BME280;32233;49.500;7.764;2023-05-23T02:52:43;98473.53;;;13.44;100.00
7433;BME280;32233;49.500;7.764;2023-05-23T02:55:10;98473.09;;;13.47;100.00
7433;BME280;32233;49.500;7.764;2023-05-23T02:57:41;98464.91;;;13.49;100.00
7433;BME280;32233;49.500;7.764;2023-05-23T03:00:08;98467.94;;;13.71;100.00
7433;BME280;32233;49.500;7.764;2023-05-23T03:02:35;98466.91;;;13.53;100.00
7433;BME280;32233;49.500;7.764;2023-05-23T03:05:02;98467.44;;;13.80;100.00
7433;BME280;32233;49.500;7.764;2023-05-23T03:07:29;98470.63;;;13.89;100.00
7433;BME280;32233;49.500;7.764;2023-05-23T03:09:56;98469.72;;;13.77;100.00
7433;BME280;32233;49.500;7.764;2023-05-23T03:12:22;98468.31;;;13.74;100.00
7433;BME280;32233;49.500;7.764;2023-05-23T03:14:49;98471.22;;;13.73;100.00
7433;BME280;32233;49.500;7.764;2023-05-23T03:17:16;98478.94;;;13.56;100.00
7433;BME280;32233;49.500;7.764;2023-05-23T03:19:42;98475.69;;;13.54;100.00
7433;BME280;32233;49.500;7.764;2023-05-23T03:22:09;98473.69;;;13.49;100.00
7433;BME280;32233;49.500;7.764;2023-05-23T03:24:35;98483.78;;;13.41;100.00
7433;BME280;32233;49.500;7.764;2023-05-23T03:27:03;98482.59;;;13.36;100.00
7433;BME280;32233;49.500;7.764;2023-05-23T03:29:29;98485.91;;;13.32;100.00
7433;BME280;32233;49.500;7.764;2023-05-23T03:31:56;98483.25;;;13.32;100.00
7433;BME280;32233;49.500;7.764;2023-05-23T03:34:23;98486.09;;;13.30;100.00
7433;BME280;32233;49.500;7.764;2023-05-23T03:36:52;98487.09;;;13.54;100.00
7433;BME280;32233;49.500;7.764;2023-05-23T03:39:18;98493.84;;;13.57;100.00
7433;BME280;32233;49.500;7.764;2023-05-23T03:41:45;98486.09;;;13.74;100.00
7433;BME280;32233;49.500;7.764;2023-05-23T03:44:12;98487.53;;;13.76;100.00
7433;BME280;32233;49.500;7.764;2023-05-23T03:46:40;98490.56;;;13.80;100.00
7433;BME280;32233;49.500;7.764;2023-05-23T03:49:07;98485.53;;;13.90;100.00
7433;BME280;32233;49.500;7.764;2023-05-23T03:51:34;98482.44;;;13.93;100.00
7433;BME280;32233;49.500;7.764;2023-05-23T03:54:01;98492.16;;;13.99;100.00
7433;BME280;32233;49.500;7.764;2023-05-23T03:56:28;98489.56;;;13.74;100.00
7433;BME280;32233;49.500;7.764;2023-05-23T03:58:55;98494.28;;;13.91;100.00
7433;BME280;32233;49.500;7.764;2023-05-23T04:01:22;98498.44;;;13.86;100.00
7433;BME280;32233;49.500;7.764;2023-05-23T04:03:48;98488.59;;;13.87;100.00
7433;BME280;32233;49.500;7.764;2023-05-23T04:06:16;98490.25;;;13.88;100.00
7433;BME280;32233;49.500;7.764;2023-05-23T04:08:44;98492.59;;;13.78;100.00
7433;BME280;32233;49.500;7.764;2023-05-23T04:11:12;98501.47;;;13.72;100.00
7433;BME280;32233;49.500;7.764;2023-05-23T04:13:40;98493.63;;;13.77;100.00
7433;BME280;32233;49.500;7.764;2023-05-23T04:16:09;98499.63;;;13.72;100.00
7433;BME280;32233;49.500;7.764;2023-05-23T04:18:36;98501.47;;;13.72;100.00
7433;BME280;32233;49.500;7.764;2023-05-23T04:21:06;98506.41;;;13.68;100.00
7433;BME280;32233;49.500;7.764;2023-05-23T04:23:37;98509.88;;;13.69;100.00
7433;BME280;32233;49.500;7.764;2023-05-23T04:26:05;98507.50;;;13.79;100.00
7433;BME280;32233;49.500;7.764;2023-05-23T04:28:34;98510.03;;;13.92;100.00
7433;BME280;32233;49.500;7.764;2023-05-23T04:31:01;98506.94;;;14.13;100.00
7433;BME280;32233;49.500;7.764;2023-05-23T04:33:31;98511.94;;;14.22;100.00
7433;BME280;32233;49.500;7.764;2023-05-23T04:36:01;98513.25;;;14.31;100.00
7433;BME280;32233;49.500;7.764;2023-05-23T04:38:28;98513.78;;;14.21;100.00
7433;BME280;32233;49.500;7.764;2023-05-23T04:40:55;98513.84;;;14.15;100.00
7433;BME280;32233;49.500;7.764;2023-05-23T04:43:49;98517.47;;;14.38;100.00
7433;BME280;32233;49.500;7.764;2023-05-23T04:46:26;98521.22;;;14.31;100.00
7433;BME280;32233;49.500;7.764;2023-05-23T04:49:09;98531.63;;;14.32;100.00
7433;BME280;32233;49.500;7.764;2023-05-23T04:51:36;98531.88;;;14.31;100.00
7433;BME280;32233;49.500;7.764;2023-05-23T04:54:29;98537.81;;;14.45;100.00
7433;BME280;32233;49.500;7.764;2023-05-23T04:56:58;98538.03;;;14.50;100.00
7433;BME280;32233;49.500;7.764;2023-05-23T04:59:26;98541.69;;;14.49;100.00
7433;BME280;32233;49.500;7.764;2023-05-23T05:01:53;98543.03;;;14.58;100.00
7433;BME280;32233;49.500;7.764;2023-05-23T05:04:20;98541.44;;;14.69;100.00
7433;BME280;32233;49.500;7.764;2023-05-23T05:06:49;98552.06;;;14.69;100.00
7433;BME280;32233;49.500;7.764;2023-05-23T05:09:16;98546.75;;;14.69;100.00
7433;BME280;32233;49.500;7.764;2023-05-23T05:11:43;98547.88;;;14.61;100.00
7433;BME280;32233;49.500;7.764;2023-05-23T05:14:09;98555.53;;;14.69;100.00
7433;BME280;32233;49.500;7.764;2023-05-23T05:16:36;98558.22;;;14.69;100.00
7433;BME280;32233;49.500;7.764;2023-05-23T05:19:03;98556.81;;;14.67;100.00
7433;BME280;32233;49.500;7.764;2023-05-23T05:21:30;98562.28;;;14.72;100.00
7433;BME280;32233;49.500;7.764;2023-05-23T05:23:57;98561.41;;;14.78;100.00
7433;BME280;32233;49.500;7.764;2023-05-23T05:26:25;98572.84;;;14.78;99.16
7433;BME280;32233;49.500;7.764;2023-05-23T05:28:52;98567.09;;;14.93;99.86
7433;BME280;32233;49.500;7.764;2023-05-23T05:31:20;98570.44;;;14.89;99.01
7433;BME280;32233;49.500;7.764;2023-05-23T05:33:47;98564.00;;;14.96;99.20
7433;BME280;32233;49.500;7.764;2023-05-23T05:36:15;98575.31;;;14.92;99.69
7433;BME280;32233;49.500;7.764;2023-05-23T05:38:43;98575.88;;;14.82;98.88
7433;BME280;32233;49.500;7.764;2023-05-23T05:41:10;98567.34;;;14.92;98.01
7433;BME280;32233;49.500;7.764;2023-05-23T05:43:41;98571.97;;;14.96;96.54
7433;BME280;32233;49.500;7.764;2023-05-23T05:46:07;98565.97;;;15.01;94.83
7433;BME280;32233;49.500;7.764;2023-05-23T05:48:34;98569.34;;;15.08;94.45
7433;BME280;32233;49.500;7.764;2023-05-23T05:51:05;98579.28;;;15.01;94.93
7433;BME280;32233;49.500;7.764;2023-05-23T05:53:33;98584.84;;;14.99;94.65
7433;BME280;32233;49.500;7.764;2023-05-23T05:56:01;98585.78;;;15.05;95.60
7433;BME280;32233;49.500;7.764;2023-05-23T05:58:30;98592.47;;;14.96;95.11
7433;BME280;32233;49.500;7.764;2023-05-23T06:01:00;98587.63;;;15.04;95.01
7433;BME280;32233;49.500;7.764;2023-05-23T06:03:26;98597.47;;;15.04;95.63
7433;BME280;32233;49.500;7.764;2023-05-23T06:05:54;98589.25;;;15.05;93.68
7433;BME280;32233;49.500;7.764;2023-05-23T06:08:21;98590.41;;;15.09;91.77
7433;BME280;32233;49.500;7.764;2023-05-23T06:10:47;98582.84;;;14.95;91.16
7433;BME280;32233;49.500;7.764;2023-05-23T06:13:15;98603.47;;;14.99;92.15
7433;BME280;32233;49.500;7.764;2023-05-23T06:15:45;98597.53;;;14.97;92.45
7433;BME280;32233;49.500;7.764;2023-05-23T06:18:12;98602.88;;;14.97;91.97
7433;BME280;32233;49.500;7.764;2023-05-23T06:20:39;98597.22;;;15.05;91.44
7433;BME280;32233;49.500;7.764;2023-05-23T06:23:11;98597.16;;;15.12;91.15
7433;BME280;32233;49.500;7.764;2023-05-23T06:25:38;98602.91;;;15.09;92.14
7433;BME280;32233;49.500;7.764;2023-05-23T06:28:05;98606.31;;;15.16;91.88
7433;BME280;32233;49.500;7.764;2023-05-23T06:30:31;98606.38;;;15.09;90.11
7433;BME280;32233;49.500;7.764;2023-05-23T06:33:00;98616.72;;;15.18;90.33
7433;BME280;32233;49.500;7.764;2023-05-23T06:35:27;98619.94;;;15.08;88.32
7433;BME280;32233;49.500;7.764;2023-05-23T06:37:54;98624.00;;;15.10;90.85
7433;BME280;32233;49.500;7.764;2023-05-23T06:40:20;98624.31;;;15.02;88.66
7433;BME280;32233;49.500;7.764;2023-05-23T06:42:48;98636.97;;;15.07;87.81
7433;BME280;32233;49.500;7.764;2023-05-23T06:45:41;98631.34;;;14.97;87.15
7433;BME280;32233;49.500;7.764;2023-05-23T06:48:12;98634.91;;;14.91;86.33
7433;BME280;32233;49.500;7.764;2023-05-23T06:50:39;98637.41;;;14.85;87.06
7433;BME280;32233;49.500;7.764;2023-05-23T06:53:07;98642.59;;;14.80;87.52
7433;BME280;32233;49.500;7.764;2023-05-23T06:55:34;98650.53;;;14.69;87.20
7433;BME280;32233;49.500;7.764;2023-05-23T06:58:01;98639.50;;;14.65;87.76
7433;BME280;32233;49.500;7.764;2023-05-23T07:00:30;98655.69;;;14.64;88.96
7433;BME280;32233;49.500;7.764;2023-05-23T07:03:07;98653.13;;;14.75;86.83
7433;BME280;32233;49.500;7.764;2023-05-23T07:05:34;98662.09;;;14.93;86.41
7433;BME280;32233;49.500;7.764;2023-05-23T07:08:07;98658.19;;;14.95;84.95
7433;BME280;32233;49.500;7.764;2023-05-23T07:10:38;98662.34;;;14.91;84.15
7433;BME280;32233;49.500;7.764;2023-05-23T07:13:20;98661.34;;;15.04;85.19
7433;BME280;32233;49.500;7.764;2023-05-23T07:15:47;98670.88;;;15.11;85.23
7433;BME280;32233;49.500;7.764;2023-05-23T07:18:13;98674.03;;;14.90;85.02
7433;BME280;32233;49.500;7.764;2023-05-23T07:20:40;98669.28;;;14.92;84.31
7433;BME280;32233;49.500;7.764;2023-05-23T07:23:15;98667.78;;;14.96;85.38
7433;BME280;32233;49.500;7.764;2023-05-23T07:25:43;98677.88;;;14.94;84.67
7433;BME280;32233;49.500;7.764;2023-05-23T07:28:33;98681.03;;;14.84;84.62
7433;BME280;32233;49.500;7.764;2023-05-23T07:31:00;98680.66;;;14.81;84.53
7433;BME280;32233;49.500;7.764;2023-05-23T07:33:27;98679.41;;;14.83;84.84
7433;BME280;32233;49.500;7.764;2023-05-23T07:35:59;98680.66;;;14.81;85.40
7433;BME280;32233;49.500;7.764;2023-05-23T07:38:26;98671.13;;;14.92;85.96
7433;BME280;32233;49.500;7.764;2023-05-23T07:40:52;98687.47;;;14.95;84.92
7433;BME280;32233;49.500;7.764;2023-05-23T07:43:35;98685.88;;;15.06;85.00
7433;BME280;32233;49.500;7.764;2023-05-23T07:46:02;98681.66;;;15.17;84.71
7433;BME280;32233;49.500;7.764;2023-05-23T07:48:29;98681.53;;;15.11;83.17
7433;BME280;32233;49.500;7.764;2023-05-23T07:50:56;98685.25;;;15.22;84.66
7433;BME280;32233;49.500;7.764;2023-05-23T07:53:23;98681.28;;;15.31;83.15
7433;BME280;32233;49.500;7.764;2023-05-23T07:55:50;98684.44;;;15.40;83.13
7433;BME280;32233;49.500;7.764;2023-05-23T07:58:18;98678.88;;;15.42;84.81
7433;BME280;32233;49.500;7.764;2023-05-23T08:00:46;98682.34;;;15.42;83.87
7433;BME280;32233;49.500;7.764;2023-05-23T08:03:31;98690.59;;;15.22;85.88
7433;BME280;32233;49.500;7.764;2023-05-23T08:06:04;98691.75;;;15.15;85.51
7433;BME280;32233;49.500;7.764;2023-05-23T08:08:33;98687.44;;;15.14;85.19
7433;BME280;32233;49.500;7.764;2023-05-23T08:10:59;98688.84;;;15.16;84.54
7433;BME280;32233;49.500;7.764;2023-05-23T08:13:33;98689.38;;;15.06;84.60
7433;BME280;32233;49.500;7.764;2023-05-23T08:16:18;98693.31;;;15.04;86.44
7433;BME280;32233;49.500;7.764;2023-05-23T08:18:45;98689.66;;;15.17;85.62
7433;BME280;32233;49.500;7.764;2023-05-23T08:21:12;98687.34;;;15.20;84.13
7433;BME280;32233;49.500;7.764;2023-05-23T08:23:38;98693.22;;;15.10;84.00
7433;BME280;32233;49.500;7.764;2023-05-23T08:26:11;98696.03;;;15.16;85.06
7433;BME280;32233;49.500;7.764;2023-05-23T08:28:41;98688.91;;;15.28;84.15
7433;BME280;32233;49.500;7.764;2023-05-23T08:31:08;98694.22;;;15.28;85.26
7433;BME280;32233;49.500;7.764;2023-05-23T08:33:35;98692.63;;;15.39;83.61
7433;BME280;32233;49.500;7.764;2023-05-23T08:36:01;98678.97;;;15.65;82.79
7433;BME280;32233;49.500;7.764;2023-05-23T08:38:28;98686.53;;;15.92;81.39
7433;BME280;32233;49.500;7.764;2023-05-23T08:41:15;98687.59;;;16.02;80.38
7433;BME280;32233;49.500;7.764;2023-05-23T08:43:44;98688.03;;;15.88;81.59
7433;BME280;32233;49.500;7.764;2023-05-23T08:46:17;98694.69;;;15.97;82.71
7433;BME280;32233;49.500;7.764;2023-05-23T08:48:50;98691.78;;;16.10;86.11
7433;BME280;32233;49.500;7.764;2023-05-23T08:51:19;98697.09;;;15.98;83.94
7433;BME280;32233;49.500;7.764;2023-05-23T08:53:48;98695.03;;;16.24;81.40
7433;BME280;32233;49.500;7.764;2023-05-23T08:56:21;98695.25;;;15.99;83.34
7433;BME280;32233;49.500;7.764;2023-05-23T08:58:49;98698.53;;;16.13;81.36
7433;BME280;32233;49.500;7.764;2023-05-23T09:01:21;98698.63;;;16.06;80.82
7433;BME280;32233;49.500;7.764;2023-05-23T09:03:52;98694.34;;;16.05;79.61
7433;BME280;32233;49.500;7.764;2023-05-23T09:06:34;98703.72;;;16.07;82.68
7433;BME280;32233;49.500;7.764;2023-05-23T09:09:00;98718.81;;;16.14;81.60
7433;BME280;32233;49.500;7.764;2023-05-23T09:11:27;98707.81;;;16.33;79.69
7433;BME280;32233;49.500;7.764;2023-05-23T09:13:56;98704.78;;;16.42;78.90
7433;BME280;32233;49.500;7.764;2023-05-23T09:16:23;98704.91;;;16.35;80.58
7433;BME280;32233;49.500;7.764;2023-05-23T09:18:54;98707.81;;;16.45;80.46
7433;BME280;32233;49.500;7.764;2023-05-23T09:21:23;98709.78;;;16.50;77.07
7433;BME280;32233;49.500;7.764;2023-05-23T09:23:59;98706.50;;;16.24;77.91
7433;BME280;32233;49.500;7.764;2023-05-23T09:26:26;98710.56;;;16.15;78.78
7433;BME280;32233;49.500;7.764;2023-05-23T09:28:56;98711.97;;;16.06;81.16
7433;BME280;32233;49.500;7.764;2023-05-23T09:31:30;98714.84;;;16.16;80.48
7433;BME280;32233;49.500;7.764;2023-05-23T09:33:57;98705.56;;;16.07;80.08
7433;BME280;32233;49.500;7.764;2023-05-23T09:36:28;98713.94;;;16.10;80.85
7433;BME280;32233;49.500;7.764;2023-05-23T09:38:55;98715.06;;;16.03;80.91
7433;BME280;32233;49.500;7.764;2023-05-23T09:41:23;98714.25;;;15.91;81.71
7433;BME280;32233;49.500;7.764;2023-05-23T09:43:51;98718.09;;;16.06;81.89
7433;BME280;32233;49.500;7.764;2023-05-23T09:46:20;98712.06;;;15.99;82.50
7433;BME280;32233;49.500;7.764;2023-05-23T09:48:48;98718.66;;;15.85;81.00
7433;BME280;32233;49.500;7.764;2023-05-23T09:51:18;98723.66;;;15.93;82.38
7433;BME280;32233;49.500;7.764;2023-05-23T09:53:49;98717.50;;;15.93;80.83
7433;BME280;32233;49.500;7.764;2023-05-23T09:56:16;98721.91;;;15.99;81.55
7433;BME280;32233;49.500;7.764;2023-05-23T09:58:47;98722.97;;;15.98;82.61
7433;BME280;32233;49.500;7.764;2023-05-23T10:01:14;98722.03;;;16.04;81.27
7433;BME280;32233;49.500;7.764;2023-05-23T10:03:48;98726.09;;;16.06;80.70
7433;BME280;32233;49.500;7.764;2023-05-23T10:06:21;98731.34;;;16.13;80.16
7433;BME280;32233;49.500;7.764;2023-05-23T10:09:03;98729.22;;;16.15;78.30
7433;BME280;32233;49.500;7.764;2023-05-23T10:14:02;98723.28;;;15.90;78.97
7433;BME280;32233;49.500;7.764;2023-05-23T10:16:43;98730.59;;;15.94;79.02
7433;BME280;32233;49.500;7.764;2023-05-23T10:19:18;98730.16;;;15.97;79.06
7433;BME280;32233;49.500;7.764;2023-05-23T10:21:49;98729.81;;;16.05;78.59
7433;BME280;32233;49.500;7.764;2023-05-23T10:24:21;98733.31;;;16.18;78.96
7433;BME280;32233;49.500;7.764;2023-05-23T10:26:47;98745.59;;;16.19;78.67
7433;BME280;32233;49.500;7.764;2023-05-23T10:29:14;98743.66;;;16.38;78.17
7433;BME280;32233;49.500;7.764;2023-05-23T10:31:41;98735.63;;;16.61;77.52
7433;BME280;32233;49.500;7.764;2023-05-23T10:34:26;98736.78;;;16.77;76.26
7433;BME280;32233;49.500;7.764;2023-05-23T10:37:01;98737.13;;;16.69;76.34
7433;BME280;32233;49.500;7.764;2023-05-23T10:42:46;98744.91;;;16.23;78.29
7433;BME280;32233;49.500;7.764;2023-05-23T10:45:22;98740.34;;;16.12;78.95
7433;BME280;32233;49.500;7.764;2023-05-23T10:47:51;98741.75;;;16.15;79.81
7433;BME280;32233;49.500;7.764;2023-05-23T10:50:32;98751.44;;;15.85;79.31
7433;BME280;32233;49.500;7.764;2023-05-23T10:53:04;98744.41;;;16.03;78.71
7433;BME280;32233;49.500;7.764;2023-05-23T10:55:33;98747.06;;;16.03;80.74
7433;BME280;32233;49.500;7.764;2023-05-23T10:58:14;98742.13;;;16.18;77.90
7433;BME280;32233;49.500;7.764;2023-05-23T11:01:19;98742.59;;;16.62;77.43
7433;BME280;32233;49.500;7.764;2023-05-23T11:09:02;98736.91;;;17.34;71.92
7433;BME280;32233;49.500;7.764;2023-05-23T11:19:38;98743.75;;;16.90;74.66
7433;BME280;32233;49.500;7.764;2023-05-23T11:22:08;98741.66;;;16.92;76.37
7433;BME280;32233;49.500;7.764;2023-05-23T11:24:54;98748.53;;;16.88;74.93
7433;BME280;32233;49.500;7.764;2023-05-23T11:27:31;98750.25;;;16.70;74.93
7433;BME280;32233;49.500;7.764;2023-05-23T11:30:09;98750.25;;;16.70;76.40
7433;BME280;32233;49.500;7.764;2023-05-23T11:32:38;98756.19;;;16.84;75.61
7433;BME280;32233;49.500;7.764;2023-05-23T11:35:09;98748.59;;;16.69;77.21
7433;BME280;32233;49.500;7.764;2023-05-23T11:37:39;98750.16;;;16.77;76.63
7433;BME280;32233;49.500;7.764;2023-05-23T11:42:53;98741.28;;;17.00;75.11
7433;BME280;32233;49.500;7.764;2023-05-23T11:45:21;98737.56;;;17.01;73.82
7433;BME280;32233;49.500;7.764;2023-05-23T11:47:48;98740.34;;;17.06;74.50
7433;BME280;32233;49.500;7.764;2023-05-23T11:50:17;98747.75;;;17.27;76.41
7433;BME280;32233;49.500;7.764;2023-05-23T11:52:46;98740.16;;;17.36;74.56
7433;BME280;32233;49.500;7.764;2023-05-23T11:55:18;98745.72;;;17.34;74.14
7433;BME280;32233;49.500;7.764;2023-05-23T11:57:44;98735.34;;;17.09;75.30
7433;BME280;32233;49.500;7.764;2023-05-23T12:00:12;98734.06;;;17.52;75.78
7433;BME280;32233;49.500;7.764;2023-05-23T12:02:43;98741.03;;;17.70;72.12
7433;BME280;32233;49.500;7.764;2023-05-23T12:05:12;98740.56;;;17.73;72.73
7433;BME280;32233;49.500;7.764;2023-05-23T12:07:40;98736.81;;;17.57;71.45
7433;BME280;32233;49.500;7.764;2023-05-23T12:10:10;98742.88;;;17.53;71.77
7433;BME280;32233;49.500;7.764;2023-05-23T12:12:37;98744.09;;;17.33;71.47
7433;BME280;32233;49.500;7.764;2023-05-23T12:15:04;98743.50;;;17.03;70.35
7433;BME280;32233;49.500;7.764;2023-05-23T12:17:31;98744.94;;;16.82;71.98
7433;BME280;32233;49.500;7.764;2023-05-23T12:19:59;98742.34;;;16.99;72.29
7433;BME280;32233;49.500;7.764;2023-05-23T12:22:26;98738.59;;;17.12;74.48
7433;BME280;32233;49.500;7.764;2023-05-23T12:24:54;98738.19;;;17.31;72.87
7433;BME280;32233;49.500;7.764;2023-05-23T12:27:29;98736.94;;;17.22;74.09
7433;BME280;32233;49.500;7.764;2023-05-23T12:30:07;98739.84;;;17.21;72.56
7433;BME280;32233;49.500;7.764;2023-05-23T12:32:41;98735.34;;;17.09;73.04
7433;BME280;32233;49.500;7.764;2023-05-23T12:35:10;98736.22;;;16.98;73.47
7433;BME280;32233;49.500;7.764;2023-05-23T12:37:39;98734.69;;;17.02;73.46
7433;BME280;32233;49.500;7.764;2023-05-23T12:40:15;98736.28;;;17.15;73.35
7433;BME280;32233;49.500;7.764;2023-05-23T12:42:52;98739.38;;;17.24;72.55
7433;BME280;32233;49.500;7.764;2023-05-23T12:45:23;98738.88;;;16.98;74.01
7433;BME280;32233;49.500;7.764;2023-05-23T12:47:56;98735.50;;;17.03;73.71
7433;BME280;32233;49.500;7.764;2023-05-23T12:50:22;98741.25;;;17.23;74.39
7433;BME280;32233;49.500;7.764;2023-05-23T12:52:49;98733.38;;;17.45;72.88
7433;BME280;32233;49.500;7.764;2023-05-23T12:55:16;98737.19;;;17.49;72.71
7433;BME280;32233;49.500;7.764;2023-05-23T12:57:42;98738.97;;;17.44;73.75
7433;BME280;32233;49.500;7.764;2023-05-23T13:00:10;98730.03;;;17.38;74.43
7433;BME280;32233;49.500;7.764;2023-05-23T13:02:37;98728.75;;;17.41;73.38
7433;BME280;32233;49.500;7.764;2023-05-23T13:05:05;98731.88;;;17.38;72.47
7433;BME280;32233;49.500;7.764;2023-05-23T13:07:31;98731.75;;;17.16;72.51
7433;BME280;32233;49.500;7.764;2023-05-23T13:09:58;98730.72;;;17.05;72.73
7433;BME280;32233;49.500;7.764;2023-05-23T13:12:25;98737.53;;;17.13;73.31
7433;BME280;32233;49.500;7.764;2023-05-23T13:14:51;98734.31;;;17.11;72.33
7433;BME280;32233;49.500;7.764;2023-05-23T13:17:18;98738.44;;;17.18;72.29
7433;BME280;32233;49.500;7.764;2023-05-23T13:19:44;98735.75;;;17.30;72.98
7433;BME280;32233;49.500;7.764;2023-05-23T13:22:11;98745.41;;;17.31;73.60
7433;BME280;32233;49.500;7.764;2023-05-23T13:24:39;98741.84;;;17.14;72.83
7433;BME280;32233;49.500;7.764;2023-05-23T13:27:06;98745.50;;;16.96;72.81
7433;BME280;32233;49.500;7.764;2023-05-23T13:29:33;98745.69;;;17.06;72.91
7433;BME280;32233;49.500;7.764;2023-05-23T13:32:00;98747.56;;;16.94;72.92
7433;BME280;32233;49.500;7.764;2023-05-23T13:34:26;98745.84;;;16.88;73.95
7433;BME280;32233;49.500;7.764;2023-05-23T13:36:54;98740.50;;;16.88;73.68
7433;BME280;32233;49.500;7.764;2023-05-23T13:39:21;98748.41;;;16.71;72.73
7433;BME280;32233;49.500;7.764;2023-05-23T13:41:49;98740.25;;;16.89;71.52
7433;BME280;32233;49.500;7.764;2023-05-23T13:44:16;98742.84;;;16.84;72.34
7433;BME280;32233;49.500;7.764;2023-05-23T13:46:43;98745.63;;;16.66;71.77
7433;BME280;32233;49.500;7.764;2023-05-23T13:49:10;98742.16;;;16.53;72.97